Time;durP1;ratioP1;P1;durP2;ratioP2;P2;SDS_P1;SDS_P2;PMS_P1;PMS_P2;Temp;Humidity;BMP_temperature;BMP_pressure;BME280_temperature;BME280_humidity;BME280_pressure;Samples;Min_cycle;Max_cycle;Signal;HPM_P1;HPM_P2
2023/06/06 00:01:59;;;;;;;13.30;9.87;;;13.90;99.90;;;;;;5034468;28;20811;-73
2023/06/06 00:04:29;;;;;;;11.90;10.13;;;13.90;99.90;;;;;;5034598;28;20421;-73
2023/06/06 00:06:57;;;;;;;13.90;9.83;;;13.90;99.90;;;;;;5034453;28;20450;-73
2023/06/06 00:09:26;;;;;;;12.07;9.47;;;13.80;99.90;;;;;;5034459;28;20439;-73
2023/06/06 00:11:56;;;;;;;17.97;10.00;;;13.80;99.90;;;;;;5033138;28;20493;-73
2023/06/06 00:14:24;;;;;;;13.73;9.07;;;13.80;99.90;;;;;;5034337;28;20481;-73
2023/06/06 00:16:55;;;;;;;12.00;9.97;;;13.80;99.90;;;;;;5032879;28;21067;-73
2023/06/06 00:19:24;;;;;;;13.30;9.63;;;13.80;99.90;;;;;;5034497;28;20442;-73
2023/06/06 00:21:52;;;;;;;11.70;9.90;;;13.80;99.90;;;;;;5034216;28;20948;-73
2023/06/06 00:24:21;;;;;;;13.07;9.83;;;13.70;99.90;;;;;;5034182;28;20521;-73
2023/06/06 00:26:49;;;;;;;14.60;9.80;;;13.70;99.90;;;;;;5033989;28;20537;-73
2023/06/06 00:29:19;;;;;;;13.03;10.20;;;13.70;99.90;;;;;;5032724;28;21002;-73
2023/06/06 00:31:47;;;;;;;14.53;9.67;;;13.70;99.90;;;;;;5032678;28;20542;-72
2023/06/06 00:34:15;;;;;;;13.20;9.67;;;13.70;99.90;;;;;;5033062;28;20454;-73
2023/06/06 00:36:43;;;;;;;12.53;9.70;;;13.70;99.90;;;;;;5033743;28;20529;-72
2023/06/06 00:39:12;;;;;;;13.10;9.00;;;13.60;99.90;;;;;;5032593;28;20439;-73
2023/06/06 00:41:40;;;;;;;13.20;10.20;;;13.60;99.90;;;;;;5033006;28;20554;-73
2023/06/06 00:44:08;;;;;;;11.40;9.70;;;13.60;99.90;;;;;;5032506;28;20443;-73
2023/06/06 00:46:38;;;;;;;12.80;10.20;;;13.60;99.90;;;;;;5032622;28;20566;-73
2023/06/06 00:49:07;;;;;;;13.27;9.80;;;13.60;99.90;;;;;;5032497;28;20525;-73
2023/06/06 00:51:35;;;;;;;12.83;9.27;;;13.50;99.90;;;;;;5034042;28;20526;-73
2023/06/06 00:54:06;;;;;;;11.73;9.90;;;13.50;99.90;;;;;;5032605;28;20451;-73
2023/06/06 00:56:36;;;;;;;13.00;10.50;;;13.50;99.90;;;;;;5032233;28;20478;-73
2023/06/06 00:59:05;;;;;;;11.57;9.20;;;13.50;99.90;;;;;;5032331;28;20482;-73
2023/06/06 01:01:38;;;;;;;12.60;10.03;;;13.50;99.90;;;;;;5032300;28;20811;-73
2023/06/06 01:04:08;;;;;;;12.03;10.43;;;13.50;99.90;;;;;;5033815;28;20469;-73
2023/06/06 01:06:37;;;;;;;12.63;9.40;;;13.50;99.90;;;;;;5034902;28;21037;-73
2023/06/06 01:09:07;;;;;;;12.13;9.80;;;13.50;99.90;;;;;;5032779;28;20816;-73
2023/06/06 01:11:43;;;;;;;13.90;10.20;;;13.40;99.90;;;;;;5032258;28;20443;-73
2023/06/06 01:14:20;;;;;;;11.80;10.37;;;13.40;99.90;;;;;;5032422;28;20434;-73
2023/06/06 01:16:52;;;;;;;14.53;10.07;;;13.40;99.90;;;;;;5032050;28;20474;-73
2023/06/06 01:19:27;;;;;;;11.80;9.80;;;13.40;99.90;;;;;;5033367;28;20415;-73
2023/06/06 01:21:58;;;;;;;12.50;9.40;;;13.40;99.90;;;;;;5033791;28;20846;-73
2023/06/06 01:24:28;;;;;;;12.00;9.70;;;13.40;99.90;;;;;;5034135;28;20967;-73
2023/06/06 01:26:56;;;;;;;11.90;9.40;;;13.30;99.90;;;;;;5033205;28;20987;-73
2023/06/06 01:29:24;;;;;;;13.17;9.20;;;13.30;99.90;;;;;;5032052;28;20443;-73
2023/06/06 01:32:02;;;;;;;13.53;10.70;;;13.30;99.90;;;;;;5033156;28;20438;-72
2023/06/06 01:34:34;;;;;;;12.77;9.70;;;13.30;99.90;;;;;;5033750;28;20457;-73
2023/06/06 01:37:12;;;;;;;12.53;9.43;;;13.30;99.90;;;;;;5037352;28;20517;-73
2023/06/06 01:39:46;;;;;;;12.33;9.20;;;13.20;99.90;;;;;;5037260;28;20442;-73
2023/06/06 01:42:16;;;;;;;12.93;9.20;;;13.20;99.90;;;;;;5037206;28;20418;-73
2023/06/06 01:44:45;;;;;;;11.97;9.30;;;13.20;99.90;;;;;;5035912;28;20500;-73
2023/06/06 01:47:14;;;;;;;11.10;9.27;;;13.20;99.90;;;;;;5036304;28;20553;-74
2023/06/06 01:49:42;;;;;;;12.50;9.67;;;13.20;99.90;;;;;;5036378;28;20478;-73
2023/06/06 01:52:13;;;;;;;11.43;9.60;;;13.10;99.90;;;;;;5037669;28;20863;-73
2023/06/06 01:54:41;;;;;;;12.13;9.77;;;13.10;99.90;;;;;;5036284;28;20447;-73
2023/06/06 01:57:10;;;;;;;13.67;9.50;;;13.10;99.90;;;;;;5036799;28;20473;-73
2023/06/06 01:59:39;;;;;;;14.33;10.23;;;13.10;99.90;;;;;;5035707;28;20438;-73
2023/06/06 02:02:07;;;;;;;12.27;9.20;;;13.10;99.90;;;;;;5035612;28;20830;-73
2023/06/06 02:04:37;;;;;;;10.10;8.13;;;13.10;99.90;;;;;;5035852;28;20521;-73
2023/06/06 02:07:05;;;;;;;12.70;8.93;;;13.10;99.90;;;;;;5035602;28;20466;-73
2023/06/06 02:09:35;;;;;;;13.10;9.57;;;13.10;99.90;;;;;;5035425;28;20453;-73
2023/06/06 02:12:05;;;;;;;12.77;9.50;;;13.00;99.90;;;;;;5035377;28;20455;-73
2023/06/06 02:14:33;;;;;;;12.90;9.77;;;13.00;99.90;;;;;;5036890;28;20462;-73
2023/06/06 02:17:01;;;;;;;15.57;10.27;;;13.00;99.90;;;;;;5035316;28;20574;-73
2023/06/06 02:19:32;;;;;;;11.70;9.70;;;13.00;99.90;;;;;;5035431;28;20442;-73
2023/06/06 02:22:01;;;;;;;12.03;9.70;;;13.00;99.90;;;;;;5037105;28;20816;-73
2023/06/06 02:24:29;;;;;;;14.20;10.10;;;13.00;99.90;;;;;;5035169;28;20482;-73
2023/06/06 02:27:01;;;;;;;12.13;9.30;;;12.90;99.90;;;;;;5041051;28;20490;-73
2023/06/06 02:29:29;;;;;;;10.73;9.10;;;12.90;99.90;;;;;;5039954;28;20873;-73
2023/06/06 02:31:58;;;;;;;11.63;8.67;;;12.90;99.90;;;;;;5041604;28;20439;-72
2023/06/06 02:34:27;;;;;;;12.60;10.20;;;12.90;99.90;;;;;;5040736;28;21014;-72
2023/06/06 02:36:57;;;;;;;12.73;9.47;;;12.90;99.90;;;;;;5040553;28;20533;-72
2023/06/06 02:39:25;;;;;;;12.30;8.50;;;12.90;99.90;;;;;;5039497;28;20838;-72
2023/06/06 02:41:53;;;;;;;13.57;9.83;;;12.80;99.90;;;;;;5039656;28;20447;-72
2023/06/06 02:44:23;;;;;;;12.20;9.10;;;12.80;99.90;;;;;;5039605;28;20780;-72
2023/06/06 02:46:52;;;;;;;10.70;9.53;;;12.80;99.90;;;;;;5039754;28;20474;-72
2023/06/06 02:49:20;;;;;;;14.13;9.53;;;12.80;99.90;;;;;;5039893;28;20454;-73
2023/06/06 02:51:49;;;;;;;12.23;9.07;;;12.80;99.90;;;;;;5039878;28;20455;-73
2023/06/06 02:54:17;;;;;;;14.07;8.47;;;12.80;99.90;;;;;;5038961;28;20486;-73
2023/06/06 02:56:45;;;;;;;11.67;10.20;;;12.80;99.90;;;;;;5039033;28;20475;-73
2023/06/06 02:59:13;;;;;;;11.87;9.80;;;12.80;99.90;;;;;;5040754;28;20430;-72
2023/06/06 03:01:44;;;;;;;11.97;9.13;;;12.80;99.90;;;;;;5040532;28;20442;-73
2023/06/06 03:04:13;;;;;;;12.47;9.63;;;12.80;99.90;;;;;;5040184;28;20498;-73
2023/06/06 03:06:42;;;;;;;14.30;10.20;;;12.80;99.90;;;;;;5039606;28;20524;-72
2023/06/06 03:09:13;;;;;;;11.53;9.40;;;12.70;99.90;;;;;;5039112;28;20451;-72
2023/06/06 03:11:42;;;;;;;14.37;10.03;;;12.70;99.90;;;;;;5039213;28;20469;-72
2023/06/06 03:14:11;;;;;;;17.87;10.20;;;12.70;99.90;;;;;;5038909;28;20482;-73
2023/06/06 03:16:41;;;;;;;12.90;10.10;;;12.70;99.90;;;;;;5038864;28;20585;-73
2023/06/06 03:19:13;;;;;;;12.70;9.50;;;12.70;99.90;;;;;;5038911;28;20493;-72
2023/06/06 03:21:42;;;;;;;14.67;10.00;;;12.60;99.90;;;;;;5039179;28;20458;-72
2023/06/06 03:24:13;;;;;;;10.43;8.83;;;12.60;99.90;;;;;;5038622;28;20865;-72
2023/06/06 03:26:46;;;;;;;14.17;9.70;;;12.60;99.90;;;;;;5038610;28;20532;-72
2023/06/06 03:29:16;;;;;;;10.80;9.43;;;12.60;99.90;;;;;;5038771;28;20459;-72
2023/06/06 03:31:44;;;;;;;13.73;10.67;;;12.60;99.90;;;;;;5037014;28;20474;-72
2023/06/06 03:34:15;;;;;;;14.73;10.10;;;12.60;99.90;;;;;;5036842;28;20500;-72
2023/06/06 03:36:45;;;;;;;13.70;10.93;;;12.60;99.90;;;;;;5036990;28;20481;-73
2023/06/06 03:39:13;;;;;;;13.07;10.40;;;12.60;99.90;;;;;;5036525;28;20447;-72
2023/06/06 03:41:41;;;;;;;13.00;10.00;;;12.60;99.90;;;;;;5038359;28;20793;-72
2023/06/06 03:44:09;;;;;;;13.43;9.70;;;12.60;99.90;;;;;;5037313;28;20443;-72
2023/06/06 03:46:38;;;;;;;13.40;10.17;;;12.60;99.90;;;;;;5038428;28;20903;-72
2023/06/06 03:49:06;;;;;;;12.80;9.80;;;12.60;99.90;;;;;;5038720;28;20431;-73
2023/06/06 03:51:36;;;;;;;13.63;10.33;;;12.60;99.90;;;;;;5038620;28;20447;-72
2023/06/06 03:54:06;;;;;;;16.53;11.37;;;12.60;99.90;;;;;;5038022;28;20444;-72
2023/06/06 03:56:34;;;;;;;12.07;10.60;;;12.60;99.90;;;;;;5037999;28;20565;-72
2023/06/06 03:59:02;;;;;;;16.10;10.20;;;12.60;99.90;;;;;;5037289;28;20537;-72
2023/06/06 04:01:31;;;;;;;14.93;10.90;;;12.60;99.90;;;;;;5037561;28;21022;-72
2023/06/06 04:03:59;;;;;;;15.30;10.60;;;12.60;99.90;;;;;;5037676;28;20882;-72
2023/06/06 04:06:28;;;;;;;14.77;11.80;;;12.60;99.90;;;;;;5039089;28;20458;-73
2023/06/06 04:08:58;;;;;;;13.40;10.30;;;12.60;99.90;;;;;;5038599;28;20447;-73
2023/06/06 04:11:27;;;;;;;14.67;11.77;;;12.60;99.90;;;;;;5038539;28;20439;-72
2023/06/06 04:13:55;;;;;;;13.60;10.70;;;12.60;99.90;;;;;;5037925;28;20466;-73
2023/06/06 04:16:23;;;;;;;14.10;11.10;;;12.60;99.90;;;;;;5038494;28;20459;-73
2023/06/06 04:18:52;;;;;;;13.00;10.60;;;12.60;99.90;;;;;;5037860;28;20467;-72
2023/06/06 04:21:21;;;;;;;15.77;10.10;;;12.60;99.90;;;;;;5037278;28;20500;-73
2023/06/06 04:23:50;;;;;;;15.20;10.80;;;12.60;99.90;;;;;;5039148;28;20451;-72
2023/06/06 04:26:31;;;;;;;14.80;12.20;;;12.60;99.90;;;;;;5037926;28;20554;-73
2023/06/06 04:28:59;;;;;;;14.50;11.50;;;12.70;99.90;;;;;;5053933;28;20443;-73
2023/06/06 04:31:29;;;;;;;15.83;11.83;;;12.60;99.90;;;;;;5037600;28;20515;-72
2023/06/06 04:34:00;;;;;;;14.93;11.10;;;12.70;99.90;;;;;;5038207;28;20542;-73
2023/06/06 04:36:32;;;;;;;14.70;11.60;;;12.70;99.90;;;;;;5037841;28;20463;-73
2023/06/06 04:39:03;;;;;;;12.97;11.57;;;12.70;99.90;;;;;;5037995;28;20860;-73
2023/06/06 04:41:34;;;;;;;15.83;11.30;;;12.60;99.90;;;;;;5037360;28;20512;-73
2023/06/06 04:44:06;;;;;;;14.00;10.70;;;12.70;99.90;;;;;;5036637;28;20518;-73
2023/06/06 04:46:36;;;;;;;13.77;11.87;;;12.70;99.90;;;;;;5037251;28;20471;-72
2023/06/06 04:49:04;;;;;;;14.30;11.60;;;12.80;99.90;;;;;;5036879;28;20451;-72
2023/06/06 04:51:33;;;;;;;12.93;9.27;;;12.80;99.90;;;;;;5051411;28;20834;-73
2023/06/06 04:54:03;;;;;;;15.17;11.90;;;12.80;99.90;;;;;;5034386;28;20534;-72
2023/06/06 04:56:34;;;;;;;16.17;11.93;;;12.80;99.90;;;;;;5034491;28;20455;-73
2023/06/06 04:59:05;;;;;;;13.87;11.93;;;12.80;99.90;;;;;;5033362;28;21018;-73
2023/06/06 05:01:36;;;;;;;16.30;13.07;;;12.90;99.90;;;;;;5033618;28;20439;-73
2023/06/06 05:04:07;;;;;;;15.40;12.63;;;12.90;99.90;;;;;;5033469;28;20435;-73
2023/06/06 05:06:35;;;;;;;15.00;12.17;;;12.90;99.90;;;;;;5036118;28;20898;-73
2023/06/06 05:09:04;;;;;;;18.10;13.27;;;12.90;99.90;;;;;;5035694;28;20481;-73
2023/06/06 05:11:34;;;;;;;21.57;13.90;;;13.00;99.90;;;;;;5035631;28;20770;-73
2023/06/06 05:14:03;;;;;;;15.07;11.93;;;13.00;99.90;;;;;;5037979;28;20470;-72
2023/06/06 05:16:31;;;;;;;16.77;13.00;;;13.10;99.90;;;;;;5037868;28;21083;-72
2023/06/06 05:19:00;;;;;;;17.30;12.40;;;13.10;99.90;;;;;;5034563;28;20471;-73
2023/06/06 05:21:28;;;;;;;16.00;11.90;;;13.10;99.90;;;;;;5035684;28;20443;-72
2023/06/06 05:23:58;;;;;;;18.50;14.47;;;13.10;99.90;;;;;;5036947;28;20439;-72
2023/06/06 05:26:27;;;;;;;16.37;13.23;;;13.10;99.90;;;;;;5035172;28;20470;-73
2023/06/06 05:28:56;;;;;;;14.97;13.00;;;13.20;99.90;;;;;;5035145;28;20964;-73
2023/06/06 05:31:25;;;;;;;15.43;13.00;;;13.30;99.90;;;;;;5036437;28;20491;-73
2023/06/06 05:33:53;;;;;;;19.00;13.70;;;13.30;99.90;;;;;;5036266;28;20530;-73
2023/06/06 05:36:22;;;;;;;17.43;13.50;;;13.40;99.90;;;;;;5035120;28;20974;-73
2023/06/06 05:38:50;;;;;;;19.40;13.77;;;13.50;99.90;;;;;;5034961;28;20463;-73
2023/06/06 05:41:22;;;;;;;16.80;12.77;;;13.50;99.90;;;;;;5036264;28;20758;-73
2023/06/06 05:43:51;;;;;;;17.70;12.90;;;13.70;99.90;;;;;;5034997;28;20501;-73
2023/06/06 05:46:21;;;;;;;16.07;13.10;;;13.80;99.90;;;;;;5035965;28;20882;-73
2023/06/06 05:48:49;;;;;;;15.90;12.37;;;14.00;99.90;;;;;;5034878;28;20462;-73
2023/06/06 05:51:17;;;;;;;19.63;13.20;;;14.10;99.90;;;;;;5036278;28;20435;-73
2023/06/06 05:53:46;;;;;;;15.33;12.70;;;14.30;99.90;;;;;;5036450;28;20471;-73
2023/06/06 05:56:16;;;;;;;16.83;12.40;;;14.50;99.90;;;;;;5036442;28;20470;-73
2023/06/06 05:58:46;;;;;;;13.60;11.33;;;14.60;99.90;;;;;;5035607;28;20444;-73
2023/06/06 06:01:15;;;;;;;18.97;11.30;;;14.80;99.90;;;;;;5037066;28;20473;-73
2023/06/06 06:03:48;;;;;;;16.13;11.30;;;15.00;99.90;;;;;;5038397;28;20530;-73
2023/06/06 06:06:19;;;;;;;11.83;10.40;;;15.20;99.90;;;;;;5038919;28;20994;-73
2023/06/06 06:08:49;;;;;;;15.40;10.70;;;15.50;99.90;;;;;;5038938;28;20419;-73
2023/06/06 06:11:19;;;;;;;13.23;10.60;;;15.70;99.90;;;;;;5038872;28;20398;-73
2023/06/06 06:13:47;;;;;;;12.50;10.83;;;15.80;99.90;;;;;;5039060;28;20461;-73
2023/06/06 06:16:16;;;;;;;15.93;11.27;;;16.00;99.90;;;;;;5036882;28;20470;-74
2023/06/06 06:18:45;;;;;;;14.27;10.73;;;16.20;99.90;;;;;;5037648;28;20474;-73
2023/06/06 06:21:14;;;;;;;13.63;10.83;;;16.40;99.90;;;;;;5039738;28;20430;-74
2023/06/06 06:23:44;;;;;;;14.50;11.73;;;16.50;99.90;;;;;;5041938;28;20458;-73
2023/06/06 06:26:12;;;;;;;13.23;9.90;;;16.60;99.90;;;;;;5041402;28;20532;-73
2023/06/06 06:28:41;;;;;;;13.70;10.77;;;16.80;99.90;;;;;;5041384;28;20556;-74
2023/06/06 06:31:09;;;;;;;15.10;9.93;;;16.80;99.90;;;;;;5043088;28;20901;-75
2023/06/06 06:33:37;;;;;;;15.43;10.00;;;16.90;99.90;;;;;;5042622;28;20514;-74
2023/06/06 06:36:07;;;;;;;15.40;11.33;;;17.00;99.90;;;;;;5042720;28;20815;-73
2023/06/06 06:38:36;;;;;;;13.77;9.93;;;17.20;99.90;;;;;;5042134;28;20782;-74
2023/06/06 06:41:05;;;;;;;14.03;9.93;;;17.30;99.90;;;;;;5041776;28;20848;-74
2023/06/06 06:43:34;;;;;;;15.27;9.67;;;17.40;99.90;;;;;;5041461;28;20426;-74
2023/06/06 06:46:11;;;;;;;13.63;9.27;;;17.50;99.90;;;;;;5040658;28;20513;-73
2023/06/06 06:48:40;;;;;;;15.90;9.60;;;17.60;99.90;;;;;;5042111;28;20429;-74
2023/06/06 06:51:10;;;;;;;16.10;10.70;;;17.60;99.90;;;;;;5042284;28;20443;-74
2023/06/06 06:53:38;;;;;;;12.83;9.57;;;17.70;99.90;;;;;;5040995;28;20479;-74
2023/06/06 06:56:07;;;;;;;14.70;9.50;;;17.70;99.90;;;;;;5042822;28;20435;-74
2023/06/06 06:58:37;;;;;;;12.97;10.33;;;17.80;99.90;;;;;;5041164;28;20450;-74
2023/06/06 07:01:05;;;;;;;15.80;10.23;;;17.90;99.90;;;;;;5043124;28;20418;-74
2023/06/06 07:03:35;;;;;;;12.67;9.30;;;17.90;99.90;;;;;;5041918;28;20446;-74
2023/06/06 07:06:07;;;;;;;12.40;8.70;;;18.00;99.90;;;;;;5040718;28;20760;-74
2023/06/06 07:08:39;;;;;;;14.90;9.07;;;18.00;99.90;;;;;;5041712;28;20474;-73
2023/06/06 07:11:07;;;;;;;15.33;10.07;;;18.20;99.90;;;;;;5041726;28;20419;-73
2023/06/06 07:13:36;;;;;;;11.93;8.30;;;18.30;99.90;;;;;;5040173;28;20447;-73
2023/06/06 07:16:05;;;;;;;14.63;9.40;;;18.40;99.90;;;;;;5041876;28;20470;-73
2023/06/06 07:18:34;;;;;;;13.33;9.03;;;18.50;99.90;;;;;;5040456;28;20438;-73
2023/06/06 07:21:02;;;;;;;12.30;8.67;;;18.60;99.90;;;;;;5038941;28;20577;-74
2023/06/06 07:23:31;;;;;;;11.73;9.60;;;18.70;99.90;;;;;;5039655;28;20446;-74
2023/06/06 07:26:06;;;;;;;12.37;9.00;;;18.80;99.90;;;;;;5039659;28;20530;-74
2023/06/06 07:28:34;;;;;;;12.23;8.77;;;18.90;99.90;;;;;;5040200;28;20443;-73
2023/06/06 07:31:03;;;;;;;17.07;9.83;;;19.00;99.90;;;;;;5039839;28;20424;-74
2023/06/06 07:33:31;;;;;;;13.00;8.60;;;19.10;99.90;;;;;;5039409;28;20443;-74
2023/06/06 07:35:59;;;;;;;9.60;7.60;;;19.20;99.90;;;;;;5039382;28;20447;-73
2023/06/06 07:38:28;;;;;;;12.40;7.87;;;19.30;99.90;;;;;;5038960;28;20443;-73
2023/06/06 07:40:56;;;;;;;9.90;7.50;;;19.40;99.90;;;;;;5038967;28;20871;-73
2023/06/06 07:43:26;;;;;;;11.10;7.40;;;19.50;99.90;;;;;;5039771;28;20930;-74
2023/06/06 07:45:54;;;;;;;11.57;8.30;;;19.60;99.90;;;;;;5040656;28;20446;-74
2023/06/06 07:48:23;;;;;;;11.43;7.80;;;19.70;99.90;;;;;;5039660;28;20432;-74
2023/06/06 07:50:51;;;;;;;10.80;8.13;;;19.80;99.90;;;;;;5040362;28;20839;-74
2023/06/06 07:53:21;;;;;;;11.80;9.23;;;19.90;99.90;;;;;;5038865;28;20512;-74
2023/06/06 07:55:49;;;;;;;12.37;7.90;;;19.90;99.90;;;;;;5040601;28;20447;-74
2023/06/06 07:58:22;;;;;;;10.20;8.70;;;20.00;99.90;;;;;;5039612;28;20830;-74
2023/06/06 08:00:51;;;;;;;11.30;8.93;;;20.10;99.90;;;;;;5040503;28;20857;-74
2023/06/06 08:03:20;;;;;;;11.70;8.07;;;20.20;99.90;;;;;;5041864;28;20435;-74
2023/06/06 08:05:48;;;;;;;11.83;8.10;;;20.30;99.90;;;;;;5040563;28;20471;-74
2023/06/06 08:08:18;;;;;;;12.73;8.20;;;20.40;99.90;;;;;;5041717;28;20435;-75
2023/06/06 08:10:46;;;;;;;12.20;8.20;;;20.50;99.90;;;;;;5041437;28;20439;-74
2023/06/06 08:13:15;;;;;;;10.50;7.60;;;20.50;99.90;;;;;;5041197;28;20427;-73
2023/06/06 08:15:43;;;;;;;11.60;7.97;;;20.50;99.90;;;;;;5041099;28;20935;-73
2023/06/06 08:18:14;;;;;;;12.43;7.70;;;20.60;99.90;;;;;;5042767;28;20450;-73
2023/06/06 08:20:42;;;;;;;13.80;9.10;;;20.60;99.90;;;;;;5042777;28;20490;-73
2023/06/06 08:23:11;;;;;;;12.27;7.63;;;20.60;99.90;;;;;;5041095;28;20441;-74
2023/06/06 08:25:40;;;;;;;10.20;7.90;;;20.70;99.90;;;;;;5043549;28;20466;-76
2023/06/06 08:28:08;;;;;;;11.10;7.30;;;20.80;99.90;;;;;;5040417;28;20455;-72
2023/06/06 08:30:36;;;;;;;10.23;7.00;;;20.80;99.90;;;;;;5038889;28;20458;-73
2023/06/06 08:33:05;;;;;;;10.67;7.23;;;20.80;99.90;;;;;;5038631;28;20850;-74
2023/06/06 08:35:34;;;;;;;10.57;7.23;;;20.90;99.90;;;;;;5041394;28;20896;-73
2023/06/06 08:38:03;;;;;;;13.57;8.33;;;20.90;99.90;;;;;;5042266;28;20454;-73
2023/06/06 08:40:31;;;;;;;10.10;7.40;;;21.00;99.90;;;;;;5035177;28;20534;-75
2023/06/06 08:43:00;;;;;;;13.53;6.97;;;21.10;99.90;;;;;;5036612;28;20481;-74
2023/06/06 08:45:29;;;;;;;15.33;8.03;;;21.10;99.90;;;;;;5037588;28;20471;-73
2023/06/06 08:48:02;;;;;;;10.10;7.40;;;21.20;99.90;;;;;;5038791;28;20913;-74
2023/06/06 08:50:31;;;;;;;12.23;7.00;;;21.30;99.90;;;;;;5038620;28;20530;-74
2023/06/06 08:53:04;;;;;;;12.20;8.30;;;21.30;99.90;;;;;;5037754;28;20439;-74
2023/06/06 08:55:35;;;;;;;13.07;7.57;;;21.40;99.90;;;;;;5036625;28;20484;-73
2023/06/06 08:58:04;;;;;;;13.20;9.30;;;21.40;99.90;;;;;;5037798;28;20463;-74
2023/06/06 09:00:32;;;;;;;13.57;8.50;;;21.50;99.90;;;;;;5037226;28;20525;-74
2023/06/06 09:03:02;;;;;;;14.00;8.30;;;21.60;99.90;;;;;;5037681;28;20781;-75
2023/06/06 09:05:31;;;;;;;13.90;7.63;;;21.60;99.90;;;;;;5037309;28;20443;-74
2023/06/06 09:08:04;;;;;;;12.67;7.50;;;21.60;99.90;;;;;;5038969;28;20459;-74
2023/06/06 09:10:32;;;;;;;10.33;6.93;;;21.70;99.90;;;;;;5037668;28;20439;-74
2023/06/06 09:13:00;;;;;;;11.73;7.90;;;21.70;99.90;;;;;;5039850;28;20442;-74
2023/06/06 09:15:30;;;;;;;7.87;6.43;;;21.80;99.90;;;;;;5038238;28;20444;-74
2023/06/06 09:17:58;;;;;;;9.60;7.03;;;21.90;99.90;;;;;;5039902;28;20490;-74
2023/06/06 09:20:26;;;;;;;10.33;7.10;;;22.00;99.90;;;;;;5039953;28;20466;-74
2023/06/06 09:22:57;;;;;;;12.80;8.27;;;22.00;99.90;;;;;;5041873;28;20517;-74
2023/06/06 09:25:27;;;;;;;11.57;8.13;;;22.10;99.90;;;;;;5042406;28;20423;-74
2023/06/06 09:28:02;;;;;;;12.83;7.93;;;22.10;99.90;;;;;;5042083;28;20857;-73
2023/06/06 09:30:31;;;;;;;11.73;7.17;;;22.20;99.90;;;;;;5041850;28;20477;-74
2023/06/06 09:33:02;;;;;;;12.43;8.43;;;22.30;99.90;;;;;;5042054;28;20960;-73
2023/06/06 09:35:35;;;;;;;11.70;7.33;;;22.40;99.90;;;;;;5041603;28;20415;-73
2023/06/06 09:38:08;;;;;;;12.23;7.80;;;22.40;99.90;;;;;;5040771;28;20458;-73
2023/06/06 09:40:45;;;;;;;10.23;7.53;;;22.40;99.90;;;;;;5040633;28;20554;-73
2023/06/06 09:43:16;;;;;;;13.00;7.87;;;22.50;99.90;;;;;;5042308;28;20423;-74
2023/06/06 09:45:51;;;;;;;12.60;7.20;;;22.50;99.90;;;;;;5042157;28;20431;-73
2023/06/06 09:48:21;;;;;;;12.63;7.70;;;22.60;99.90;;;;;;5041207;28;20444;-74
2023/06/06 09:50:50;;;;;;;11.60;6.70;;;22.60;99.90;;;;;;5042198;28;20448;-74
2023/06/06 09:53:23;;;;;;;10.60;7.93;;;22.70;99.90;;;;;;5041322;28;20442;-74
2023/06/06 09:55:54;;;;;;;11.00;7.83;;;22.70;99.90;;;;;;5042963;28;20477;-74
2023/06/06 09:58:23;;;;;;;11.37;7.97;;;22.80;99.90;;;;;;5048072;28;20421;-73
2023/06/06 10:00:52;;;;;;;12.67;8.50;;;22.90;99.90;;;;;;5046078;28;20466;-73
2023/06/06 10:03:22;;;;;;;10.23;7.20;;;22.90;99.90;;;;;;5047357;28;20441;-74
2023/06/06 10:05:52;;;;;;;10.27;7.80;;;22.90;99.90;;;;;;5047255;28;20439;-74
2023/06/06 10:08:22;;;;;;;10.30;7.77;;;22.90;99.90;;;;;;5045114;28;20939;-74
2023/06/06 10:10:51;;;;;;;9.70;7.67;;;22.90;99.90;;;;;;5044676;28;20447;-74
2023/06/06 10:13:25;;;;;;;13.23;7.70;;;23.00;99.90;;;;;;5046901;28;20457;-74
2023/06/06 10:15:53;;;;;;;13.17;8.20;;;23.10;99.90;;;;;;5046826;28;20427;-74
2023/06/06 10:18:23;;;;;;;10.80;7.73;;;23.10;99.90;;;;;;5047232;28;20507;-74
2023/06/06 10:20:55;;;;;;;11.30;7.90;;;23.20;99.90;;;;;;5047251;28;20459;-74
2023/06/06 10:23:23;;;;;;;12.03;8.40;;;23.20;99.90;;;;;;5047027;28;20441;-73
2023/06/06 10:25:53;;;;;;;11.73;8.57;;;23.30;99.90;;;;;;5046988;28;20851;-74
2023/06/06 10:28:29;;;;;;;11.03;8.67;;;23.30;99.90;;;;;;5047477;28;20927;-74
2023/06/06 10:31:03;;;;;;;10.67;7.77;;;23.40;99.90;;;;;;5047476;28;20422;-74
2023/06/06 10:33:41;;;;;;;11.40;8.23;;;23.40;99.90;;;;;;5047919;28;20469;-74
2023/06/06 10:36:15;;;;;;;9.93;8.23;;;23.50;99.90;;;;;;5047269;28;20458;-74
2023/06/06 10:39:18;;;;;;;13.60;8.67;;;23.50;99.90;;;;;;5046849;28;20423;-73
2023/06/06 10:41:54;;;;;;;10.37;7.37;;;23.60;99.90;;;;;;5046886;28;20462;-73
2023/06/06 10:44:34;;;;;;;11.27;8.57;;;23.60;99.90;;;;;;5044104;28;20421;-73
2023/06/06 10:47:28;;;;;;;10.27;7.40;;;23.60;99.90;;;;;;5043471;28;20458;-74
2023/06/06 10:50:33;;;;;;;14.07;8.67;;;23.70;99.90;;;;;;5036358;28;20461;-74
2023/06/06 10:53:06;;;;;;;11.67;7.40;;;23.70;99.90;;;;;;5042302;28;20442;-73
2023/06/06 10:55:44;;;;;;;12.87;8.67;;;23.70;99.90;;;;;;5042909;28;20434;-74
2023/06/06 10:58:27;;;;;;;11.30;8.70;;;23.80;99.90;;;;;;5041782;28;20462;-74
2023/06/06 11:01:05;;;;;;;10.50;7.70;;;23.80;99.90;;;;;;5043213;28;20459;-74
2023/06/06 11:03:35;;;;;;;14.37;8.30;;;23.80;99.90;;;;;;5042099;28;20481;-74
2023/06/06 11:06:26;;;;;;;11.00;7.50;;;23.90;99.90;;;;;;5043118;28;20504;-74
2023/06/06 11:08:59;;;;;;;10.33;8.00;;;23.90;99.90;;;;;;5035188;28;20446;-74
2023/06/06 11:11:30;;;;;;;10.53;7.20;;;23.90;99.90;;;;;;5043509;28;20446;-74
2023/06/06 11:14:00;;;;;;;12.73;7.63;;;24.00;99.90;;;;;;5043585;28;20423;-74
2023/06/06 11:16:59;;;;;;;12.30;7.60;;;24.00;99.90;;;;;;5043831;28;20454;-74
2023/06/06 11:19:38;;;;;;;11.20;7.67;;;24.00;99.90;;;;;;5043501;28;20446;-73
2023/06/06 11:22:07;;;;;;;13.57;8.63;;;24.10;99.90;;;;;;5044017;28;20457;-73
2023/06/06 11:24:36;;;;;;;10.00;8.00;;;24.10;99.90;;;;;;5041575;28;20462;-74
2023/06/06 11:27:08;;;;;;;11.43;7.70;;;24.10;99.90;;;;;;5043163;28;20523;-74
2023/06/06 11:29:37;;;;;;;12.17;8.10;;;24.10;99.90;;;;;;5042865;28;20458;-74
2023/06/06 11:32:12;;;;;;;11.53;8.37;;;24.10;99.90;;;;;;5041882;28;20443;-74
2023/06/06 11:34:41;;;;;;;9.80;6.40;;;24.20;99.90;;;;;;5043282;28;20423;-74
2023/06/06 11:37:11;;;;;;;10.67;7.50;;;24.20;99.90;;;;;;5043699;28;20469;-74
2023/06/06 11:39:39;;;;;;;11.37;8.40;;;24.20;99.90;;;;;;5043862;28;20443;-74
2023/06/06 11:42:15;;;;;;;11.90;8.53;;;24.30;99.90;;;;;;5043428;28;20482;-74
2023/06/06 11:44:44;;;;;;;9.60;7.83;;;24.30;99.90;;;;;;5043476;28;20419;-74
2023/06/06 11:47:13;;;;;;;9.57;7.73;;;24.30;99.90;;;;;;5043686;28;20467;-74
2023/06/06 11:49:46;;;;;;;12.03;7.17;;;24.30;99.90;;;;;;5041396;28;20451;-74
2023/06/06 11:52:15;;;;;;;11.10;6.63;;;24.20;99.90;;;;;;5043615;28;20826;-74
2023/06/06 11:55:04;;;;;;;10.40;7.63;;;24.20;99.90;;;;;;5043060;28;20799;-74
2023/06/06 11:57:34;;;;;;;11.13;7.50;;;24.30;99.90;;;;;;5042006;28;20479;-74
2023/06/06 12:00:10;;;;;;;15.53;7.97;;;24.30;99.90;;;;;;5041939;28;20450;-74
2023/06/06 12:02:48;;;;;;;9.53;7.53;;;24.20;99.90;;;;;;5043347;28;20947;-74
2023/06/06 12:05:21;;;;;;;10.57;7.20;;;24.30;99.90;;;;;;5042921;28;20446;-74
2023/06/06 12:07:50;;;;;;;9.97;7.90;;;24.30;99.90;;;;;;5044111;28;20459;-74
2023/06/06 12:10:25;;;;;;;11.67;6.73;;;24.30;99.90;;;;;;5042936;28;20442;-74
2023/06/06 12:12:53;;;;;;;12.03;7.20;;;24.30;99.90;;;;;;5044014;28;20414;-74
2023/06/06 12:15:22;;;;;;;9.70;6.93;;;24.30;99.90;;;;;;5044780;28;20453;-74
2023/06/06 12:17:53;;;;;;;12.90;7.90;;;24.30;99.90;;;;;;5043258;28;20869;-73
2023/06/06 12:20:25;;;;;;;10.03;7.27;;;24.30;99.90;;;;;;5042541;28;20999;-74
2023/06/06 12:22:54;;;;;;;11.23;6.90;;;24.40;99.90;;;;;;5041616;28;20470;-74
2023/06/06 12:25:27;;;;;;;10.83;7.10;;;24.40;99.90;;;;;;5039871;28;20478;-74
2023/06/06 12:27:55;;;;;;;10.57;7.67;;;24.40;99.90;;;;;;5037040;28;20471;-74
2023/06/06 12:30:31;;;;;;;10.53;8.33;;;24.40;99.90;;;;;;5037400;28;20446;-74
2023/06/06 12:33:02;;;;;;;11.77;7.20;;;24.40;99.90;;;;;;5039496;28;20430;-74
2023/06/06 12:35:31;;;;;;;10.40;8.20;;;24.40;99.90;;;;;;5037301;28;20471;-74
2023/06/06 12:38:01;;;;;;;11.87;8.80;;;24.30;99.90;;;;;;5037900;28;20608;-74
2023/06/06 12:40:34;;;;;;;10.10;6.80;;;24.40;99.90;;;;;;5035130;28;20425;-74
2023/06/06 12:43:04;;;;;;;10.50;7.53;;;24.30;99.90;;;;;;5035500;28;20461;-74
2023/06/06 12:45:36;;;;;;;13.10;8.23;;;24.30;99.90;;;;;;5035819;28;20419;-74
2023/06/06 12:48:06;;;;;;;8.57;7.03;;;24.30;99.90;;;;;;5035220;28;20466;-74
2023/06/06 12:50:34;;;;;;;15.70;7.40;;;24.30;99.90;;;;;;5035301;28;20431;-74